createdAt,value
2022-10-01T00:00:52.289Z,8.57
2022-10-01T00:03:20.711Z,8.62
2022-10-01T00:05:48.570Z,8.63
2022-10-01T00:08:16.441Z,8.62
2022-10-01T00:10:45.238Z,8.65
2022-10-01T00:13:12.669Z,8.65
2022-10-01T00:15:41.923Z,8.68
2022-10-01T00:18:10.183Z,8.69
2022-10-01T00:20:42.017Z,8.67
2022-10-01T00:23:09.436Z,8.62
2022-10-01T00:25:36.997Z,8.65
2022-10-01T00:28:05.847Z,8.60
2022-10-01T00:30:37.213Z,8.52
2022-10-01T00:33:07.050Z,8.44
2022-10-01T00:35:34.452Z,8.40
2022-10-01T00:38:01.833Z,8.31
2022-10-01T00:40:29.210Z,8.21
2022-10-01T00:42:56.577Z,8.15
2022-10-01T00:45:25.341Z,8.13
2022-10-01T00:47:56.706Z,8.04
2022-10-01T00:50:29.299Z,8.04
2022-10-01T00:53:00.486Z,7.97
2022-10-01T00:55:31.493Z,7.96
2022-10-01T00:57:59.587Z,7.89
2022-10-01T01:00:28.315Z,7.89
2022-10-01T01:02:55.996Z,7.87
2022-10-01T01:05:23.531Z,7.81
2022-10-01T01:07:53.318Z,7.84
2022-10-01T01:10:31.592Z,7.83
2022-10-01T01:13:11.991Z,7.86
2022-10-01T01:15:47.339Z,7.82
2022-10-01T01:18:22.034Z,7.85
2022-10-01T01:21:07.543Z,7.79
2022-10-01T01:24:05.376Z,7.74
2022-10-01T01:26:42.158Z,7.70
2022-10-01T01:29:18.133Z,7.68
2022-10-01T01:31:47.740Z,7.70
2022-10-01T01:34:20.885Z,7.68
2022-10-01T01:36:56.635Z,7.67
2022-10-01T01:39:30.506Z,7.60
2022-10-01T01:42:04.667Z,7.56
2022-10-01T01:44:42.701Z,7.66
2022-10-01T01:47:12.024Z,7.62
2022-10-01T01:49:40.200Z,7.63
2022-10-01T01:52:13.342Z,7.62
2022-10-01T01:54:41.413Z,7.63
2022-10-01T01:57:09.530Z,7.61
2022-10-01T01:59:38.436Z,7.60
2022-10-01T02:02:07.635Z,7.53
2022-10-01T02:04:39.331Z,7.59
2022-10-01T02:07:22.340Z,7.62
2022-10-01T02:09:56.355Z,7.63
2022-10-01T02:12:32.625Z,7.66
2022-10-01T02:15:10.615Z,7.63
2022-10-01T02:17:50.884Z,7.64
2022-10-01T02:20:25.604Z,7.65
2022-10-01T02:22:57.380Z,7.66
2022-10-01T02:25:28.608Z,7.69
2022-10-01T02:28:01.427Z,7.64
2022-10-01T02:30:32.780Z,7.72
2022-10-01T02:33:02.420Z,7.66
2022-10-01T02:35:32.683Z,7.61
2022-10-01T02:38:03.386Z,7.69
2022-10-01T02:40:34.764Z,7.69
2022-10-01T02:43:06.432Z,7.70
2022-10-01T02:45:38.334Z,7.70
2022-10-01T02:48:09.236Z,7.72
2022-10-01T02:50:44.063Z,7.78
2022-10-01T02:53:18.572Z,7.81
2022-10-01T02:55:48.354Z,7.76
2022-10-01T02:58:14.783Z,7.81
2022-10-01T03:00:43.471Z,7.84
2022-10-01T03:03:10.880Z,7.83
2022-10-01T03:05:38.284Z,7.82
2022-10-01T03:08:05.728Z,7.83
2022-10-01T03:10:33.528Z,7.82
2022-10-01T03:13:01.649Z,7.84
2022-10-01T03:15:29.564Z,7.87
2022-10-01T03:17:58.308Z,7.84
2022-10-01T03:20:26.424Z,7.84
2022-10-01T03:22:54.371Z,7.89
2022-10-01T03:25:21.940Z,7.88
2022-10-01T03:27:49.514Z,7.87
2022-10-01T03:30:17.171Z,7.82
2022-10-01T03:32:44.583Z,7.85
2022-10-01T03:35:13.360Z,7.86
2022-10-01T03:37:40.785Z,7.83
2022-10-01T03:40:09.087Z,7.87
2022-10-01T03:42:36.504Z,7.87
2022-10-01T03:45:04.385Z,7.84
2022-10-01T03:47:31.812Z,7.88
2022-10-01T03:49:59.260Z,7.91
2022-10-01T03:52:28.042Z,7.89
2022-10-01T03:54:55.454Z,7.90
2022-10-01T03:57:22.857Z,7.85
2022-10-01T03:59:50.261Z,7.90
2022-10-01T04:02:17.860Z,7.87
2022-10-01T04:04:45.373Z,7.88
2022-10-01T04:07:12.761Z,7.87
2022-10-01T04:09:41.471Z,7.88
2022-10-01T04:12:09.460Z,7.93
2022-10-01T04:14:36.828Z,7.93
2022-10-01T04:17:04.261Z,7.91
2022-10-01T04:19:31.640Z,7.89
2022-10-01T04:21:59.312Z,7.92
2022-10-01T04:24:26.706Z,7.90
2022-10-01T04:26:55.502Z,7.91
2022-10-01T04:29:22.895Z,7.94
2022-10-01T04:31:50.464Z,7.95
2022-10-01T04:34:17.981Z,7.98
2022-10-01T04:36:45.422Z,7.93
2022-10-01T04:39:12.791Z,7.94
2022-10-01T04:41:41.004Z,7.98
2022-10-01T04:44:10.294Z,7.97
2022-10-01T04:46:37.732Z,7.97
2022-10-01T04:49:05.452Z,7.95
2022-10-01T04:51:33.221Z,7.95
2022-10-01T04:54:00.840Z,7.95
2022-10-01T04:56:28.256Z,7.96
2022-10-01T04:58:55.656Z,7.97
2022-10-01T05:01:24.986Z,7.96
2022-10-01T05:03:52.578Z,7.97
2022-10-01T05:06:19.995Z,8.00
2022-10-01T05:08:48.693Z,8.01
2022-10-01T05:11:16.177Z,8.03
2022-10-01T05:13:43.624Z,8.01
2022-10-01T05:16:11.687Z,8.03
2022-10-01T05:18:40.992Z,8.07
2022-10-01T05:21:09.908Z,8.09
2022-10-01T05:23:37.297Z,8.10
2022-10-01T05:26:05.640Z,8.08
2022-10-01T05:28:33.291Z,8.07
2022-10-01T05:31:01.425Z,8.10
2022-10-01T05:33:29.503Z,8.13
2022-10-01T05:35:58.788Z,8.13
2022-10-01T05:38:26.308Z,8.12
2022-10-01T05:40:53.690Z,8.15
2022-10-01T05:43:21.110Z,8.17
2022-10-01T05:45:51.391Z,8.16
2022-10-01T05:48:18.840Z,8.17
2022-10-01T05:50:46.504Z,8.22
2022-10-01T05:53:15.955Z,8.20
2022-10-01T05:55:43.380Z,8.22
2022-10-01T05:58:13.252Z,8.23
2022-10-01T06:00:42.905Z,8.32
2022-10-01T06:03:13.307Z,8.33
2022-10-01T06:05:40.848Z,8.41
2022-10-01T06:08:09.719Z,8.39
2022-10-01T06:10:38.976Z,8.44
2022-10-01T06:13:06.880Z,8.49
2022-10-01T06:15:37.479Z,8.50
2022-10-01T06:18:05.376Z,8.52
2022-10-01T06:20:32.935Z,8.58
2022-10-01T06:23:00.425Z,8.58
2022-10-01T06:25:30.599Z,8.68
2022-10-01T06:28:00.379Z,8.72
2022-10-01T06:30:29.170Z,8.69
2022-10-01T06:33:01.068Z,8.75
2022-10-01T06:35:28.459Z,8.77
2022-10-01T06:37:55.877Z,8.81
2022-10-01T06:40:23.280Z,8.87
2022-10-01T06:42:56.025Z,8.85
2022-10-01T06:45:25.832Z,8.89
2022-10-01T06:47:57.311Z,8.85
2022-10-01T06:50:26.142Z,8.92
2022-10-01T06:52:54.010Z,8.95
2022-10-01T06:55:23.014Z,9.00
2022-10-01T06:57:55.201Z,8.97
2022-10-01T07:00:23.169Z,9.05
2022-10-01T07:02:52.412Z,9.13
2022-10-01T07:05:19.836Z,9.14
2022-10-01T07:07:48.244Z,9.17
2022-10-01T07:10:16.949Z,9.21
2022-10-01T07:12:44.339Z,9.26
2022-10-01T07:15:11.803Z,9.28
2022-10-01T07:17:44.893Z,9.32
2022-10-01T07:20:14.692Z,9.36
2022-10-01T07:22:42.347Z,9.31
2022-10-01T07:25:10.264Z,9.30
2022-10-01T07:27:38.726Z,9.30
2022-10-01T07:30:07.845Z,9.34
2022-10-01T07:32:36.083Z,9.31
2022-10-01T07:35:03.591Z,9.34
2022-10-01T07:37:32.508Z,9.36
2022-10-01T07:40:02.078Z,9.34
2022-10-01T07:42:32.745Z,9.32
2022-10-01T07:45:00.144Z,9.33
2022-10-01T07:47:27.561Z,9.39
2022-10-01T07:49:54.964Z,9.42
2022-10-01T07:52:22.469Z,9.46
2022-10-01T07:54:51.212Z,9.50
2022-10-01T07:57:18.697Z,9.56
2022-10-01T07:59:46.123Z,9.63
2022-10-01T08:02:15.704Z,9.67
2022-10-01T08:05:00.681Z,9.73
2022-10-01T08:07:28.346Z,9.84
2022-10-01T08:09:57.615Z,9.91
2022-10-01T08:12:28.814Z,9.91
2022-10-01T08:14:56.194Z,10.01
2022-10-01T08:17:28.543Z,10.11
2022-10-01T08:19:56.821Z,10.16
2022-10-01T08:22:24.203Z,10.32
2022-10-01T08:24:51.620Z,10.34
2022-10-01T08:27:20.435Z,10.31
2022-10-01T08:29:48.102Z,10.32
2022-10-01T08:32:15.536Z,10.30
2022-10-01T08:34:42.923Z,10.32
2022-10-01T08:37:10.338Z,10.38
2022-10-01T08:39:37.825Z,10.46
2022-10-01T08:42:15.244Z,10.50
2022-10-01T08:44:46.863Z,10.55
2022-10-01T08:47:20.388Z,10.53
2022-10-01T08:49:54.385Z,10.52
2022-10-01T08:52:24.198Z,10.58
2022-10-01T08:54:57.508Z,10.58
2022-10-01T08:57:29.459Z,10.47
2022-10-01T09:00:01.223Z,10.50
2022-10-01T09:02:30.385Z,10.59
2022-10-01T09:05:01.804Z,10.72
2022-10-01T09:07:46.106Z,10.83
2022-10-01T09:10:27.290Z,10.93
2022-10-01T09:13:18.499Z,10.92
2022-10-01T09:15:55.136Z,10.93
2022-10-01T09:18:30.101Z,11.01
2022-10-01T09:20:59.694Z,11.04
2022-10-01T09:23:29.749Z,11.19
2022-10-01T09:25:59.868Z,11.32
2022-10-01T09:28:30.025Z,11.41
2022-10-01T09:31:04.593Z,11.53
2022-10-01T09:33:34.071Z,11.53
2022-10-01T09:36:11.891Z,11.83
2022-10-01T09:38:41.344Z,11.92
2022-10-01T09:41:10.389Z,12.02
2022-10-01T09:43:40.434Z,12.14
2022-10-01T09:46:14.022Z,12.17
2022-10-01T09:48:46.177Z,12.26
2022-10-01T09:51:17.632Z,12.37
2022-10-01T09:53:48.755Z,12.52
2022-10-01T09:56:23.388Z,12.49
2022-10-01T09:58:54.962Z,12.55
2022-10-01T10:01:29.577Z,12.73
2022-10-01T10:03:58.932Z,12.75
2022-10-01T10:06:29.405Z,12.71
2022-10-01T10:08:59.176Z,12.66
2022-10-01T10:11:29.312Z,12.98
2022-10-01T10:14:00.013Z,13.13
2022-10-01T10:16:30.997Z,13.24
2022-10-01T10:19:02.732Z,13.08
2022-10-01T10:21:33.889Z,13.24
2022-10-01T10:24:03.554Z,13.31
2022-10-01T10:26:33.354Z,13.35
2022-10-01T10:29:02.587Z,13.42
2022-10-01T10:31:41.591Z,13.50
2022-10-01T10:34:15.222Z,13.57
2022-10-01T10:36:45.537Z,13.74
2022-10-01T10:39:20.903Z,13.62
2022-10-01T10:41:49.855Z,13.63
2022-10-01T10:44:21.263Z,13.67
2022-10-01T10:46:52.767Z,13.68
2022-10-01T10:49:24.341Z,13.88
2022-10-01T10:51:54.460Z,13.83
2022-10-01T10:54:25.648Z,13.77
2022-10-01T10:56:54.792Z,13.82
2022-10-01T10:59:22.254Z,13.77
2022-10-01T11:01:52.759Z,14.23
2022-10-01T11:04:28.562Z,14.25
2022-10-01T11:07:01.375Z,14.13
2022-10-01T11:09:34.765Z,14.10
2022-10-01T11:12:15.003Z,14.17
2022-10-01T11:14:54.865Z,14.31
2022-10-01T11:17:41.761Z,14.36
2022-10-01T11:20:23.879Z,14.41
2022-10-01T11:23:06.930Z,14.30
2022-10-01T11:25:44.472Z,14.44
2022-10-01T11:28:27.142Z,14.53
2022-10-01T11:31:01.218Z,14.44
2022-10-01T11:33:40.345Z,14.57
2022-10-01T11:36:14.889Z,14.77
2022-10-01T11:38:48.748Z,14.93
2022-10-01T11:41:22.711Z,14.92
2022-10-01T11:43:53.538Z,14.81
2022-10-01T11:46:34.694Z,14.72
2022-10-01T11:49:25.310Z,15.01
2022-10-01T11:52:03.223Z,15.08
2022-10-01T11:54:33.884Z,14.86
2022-10-01T11:57:23.340Z,14.82
2022-10-01T11:59:56.649Z,14.63
2022-10-01T12:02:31.180Z,14.62
2022-10-01T12:05:03.937Z,14.61
2022-10-01T12:07:38.813Z,14.80
2022-10-01T12:10:18.934Z,14.82
2022-10-01T12:12:50.674Z,14.82
2022-10-01T12:15:23.224Z,15.00
2022-10-01T12:17:54.216Z,15.03
2022-10-01T12:20:28.704Z,15.18
2022-10-01T12:22:59.296Z,15.09
2022-10-01T12:25:34.667Z,15.08
2022-10-01T12:28:10.585Z,15.07
2022-10-01T12:30:46.003Z,15.24
2022-10-01T12:33:35.532Z,15.00
2022-10-01T12:36:15.316Z,14.59
2022-10-01T12:38:58.492Z,14.39
2022-10-01T12:41:43.000Z,14.23
2022-10-01T12:44:34.205Z,14.17
2022-10-01T12:47:14.882Z,14.08
2022-10-01T12:49:49.260Z,14.12
2022-10-01T12:52:27.665Z,14.09
2022-10-01T12:55:16.157Z,14.23
2022-10-01T12:57:50.768Z,14.06
2022-10-01T13:00:20.574Z,13.87
2022-10-01T13:03:07.078Z,13.74
2022-10-01T13:05:44.167Z,13.55
2022-10-01T13:08:29.133Z,13.52
2022-10-01T13:11:05.351Z,13.57
2022-10-01T13:13:34.560Z,13.62
2022-10-01T13:16:09.854Z,13.52
2022-10-01T13:18:47.686Z,13.70
2022-10-01T13:21:22.818Z,13.87
2022-10-01T13:23:58.016Z,13.91
2022-10-01T13:26:33.309Z,13.81
2022-10-01T13:29:16.846Z,13.89
2022-10-01T13:31:55.046Z,14.23
2022-10-01T13:34:35.541Z,14.33
2022-10-01T13:37:14.581Z,14.50
2022-10-01T13:39:43.779Z,14.45
2022-10-01T13:42:23.011Z,14.29
2022-10-01T13:44:56.357Z,14.00
2022-10-01T13:47:25.019Z,13.90
2022-10-01T13:50:03.532Z,14.13
2022-10-01T13:52:31.858Z,14.41
2022-10-01T13:55:02.464Z,14.46
2022-10-01T13:57:34.063Z,14.56
2022-10-01T14:00:06.917Z,14.48
2022-10-01T14:02:36.512Z,14.70
2022-10-01T14:05:22.968Z,15.19
2022-10-01T14:07:56.638Z,15.44
2022-10-01T14:10:33.808Z,15.55
2022-10-01T14:13:22.458Z,15.82
2022-10-01T14:16:00.442Z,15.87
2022-10-01T14:18:33.888Z,16.13
2022-10-01T14:21:13.303Z,15.61
2022-10-01T14:23:51.905Z,14.81
2022-10-01T14:26:29.109Z,15.10
2022-10-01T14:29:06.966Z,15.03
2022-10-01T14:31:47.536Z,15.10
2022-10-01T14:34:42.167Z,15.25
2022-10-01T14:37:16.936Z,14.89
2022-10-01T14:39:45.158Z,14.51
2022-10-01T14:42:18.489Z,14.59
2022-10-01T14:44:47.727Z,14.56
2022-10-01T14:47:20.273Z,14.96
2022-10-01T14:49:48.390Z,15.27
2022-10-01T14:52:21.492Z,15.31
2022-10-01T14:54:52.607Z,15.64
2022-10-01T14:57:29.511Z,15.80
2022-10-01T14:59:58.895Z,15.89
2022-10-01T15:02:27.639Z,15.59
2022-10-01T15:04:57.090Z,15.49
2022-10-01T15:07:26.322Z,15.70
2022-10-01T15:09:53.747Z,15.93
2022-10-01T15:12:24.126Z,15.84
2022-10-01T15:14:55.318Z,15.94
2022-10-01T15:17:25.726Z,15.88
2022-10-01T15:19:55.782Z,16.14
2022-10-01T15:22:26.354Z,16.16
2022-10-01T15:24:56.935Z,15.72
2022-10-01T15:27:26.372Z,15.07
2022-10-01T15:29:58.581Z,14.98
2022-10-01T15:32:28.106Z,14.64
2022-10-01T15:34:57.698Z,15.05
2022-10-01T15:37:31.187Z,14.53
2022-10-01T15:40:00.533Z,14.52
2022-10-01T15:42:32.102Z,14.32
2022-10-01T15:45:21.919Z,14.26
2022-10-01T15:47:51.552Z,14.52
2022-10-01T15:50:21.736Z,14.24
2022-10-01T15:52:54.099Z,13.90
2022-10-01T15:55:28.063Z,13.77
2022-10-01T15:58:04.058Z,13.78
2022-10-01T16:00:34.827Z,13.80
2022-10-01T16:03:03.897Z,13.77
2022-10-01T16:05:37.688Z,13.77
2022-10-01T16:08:06.104Z,13.69
2022-10-01T16:10:36.638Z,13.67
2022-10-01T16:13:39.063Z,13.54
2022-10-01T16:16:21.293Z,13.47
2022-10-01T16:18:53.813Z,13.38
2022-10-01T16:21:22.648Z,13.31
2022-10-01T16:23:50.936Z,13.26
2022-10-01T16:26:39.429Z,13.22
2022-10-01T16:29:26.625Z,13.19
2022-10-01T16:31:56.617Z,13.09
2022-10-01T16:34:24.880Z,13.09
2022-10-01T16:36:52.267Z,13.04
2022-10-01T16:39:19.673Z,12.95
2022-10-01T16:42:01.688Z,12.92
2022-10-01T16:44:39.883Z,12.80
2022-10-01T16:47:11.032Z,12.80
2022-10-01T16:49:38.502Z,12.78
2022-10-01T16:52:06.151Z,12.68
2022-10-01T16:54:33.566Z,12.72
2022-10-01T16:57:01.868Z,12.68
2022-10-01T16:59:29.255Z,12.57
2022-10-01T17:01:57.367Z,12.53
2022-10-01T17:04:29.291Z,12.51
2022-10-01T17:06:58.917Z,12.39
2022-10-01T17:09:26.340Z,12.44
2022-10-01T17:11:53.869Z,12.44
2022-10-01T17:14:22.048Z,12.28
2022-10-01T17:16:50.574Z,12.38
2022-10-01T17:19:18.867Z,12.33
2022-10-01T17:21:47.635Z,12.30
2022-10-01T17:24:15.038Z,12.22
2022-10-01T17:26:45.254Z,12.03
2022-10-01T17:29:13.125Z,11.91
2022-10-01T17:31:44.488Z,11.87
2022-10-01T17:34:13.005Z,11.77
2022-10-01T17:36:40.648Z,11.75
2022-10-01T17:39:09.422Z,11.75
2022-10-01T17:41:36.823Z,11.72
2022-10-01T17:44:04.234Z,11.71
2022-10-01T17:46:31.965Z,11.58
2022-10-01T17:48:59.463Z,11.66
2022-10-01T17:51:26.862Z,11.64
2022-10-01T17:53:56.226Z,11.55
2022-10-01T17:56:24.986Z,11.46
2022-10-01T17:58:54.738Z,11.36
2022-10-01T18:01:22.926Z,11.29
2022-10-01T18:03:54.611Z,11.30
2022-10-01T18:06:22.210Z,11.21
2022-10-01T18:08:57.035Z,11.13
2022-10-01T18:11:27.356Z,11.16
2022-10-01T18:13:54.818Z,11.09
2022-10-01T18:16:23.170Z,11.10
2022-10-01T18:21:44.040Z,10.98
2022-10-01T18:24:11.598Z,10.93
2022-10-01T18:26:40.351Z,10.94
2022-10-01T18:29:07.806Z,10.87
2022-10-01T18:31:36.869Z,10.79
2022-10-01T18:34:12.494Z,10.72
2022-10-01T18:36:48.030Z,10.66
2022-10-01T18:39:20.313Z,10.60
2022-10-01T18:41:51.030Z,10.56
2022-10-01T18:44:20.551Z,10.49
2022-10-01T18:47:00.982Z,10.47
2022-10-01T18:49:48.518Z,10.48
2022-10-01T18:52:25.704Z,10.43
2022-10-01T18:55:10.731Z,10.36
2022-10-01T18:57:59.231Z,10.36
2022-10-01T19:00:34.549Z,10.24
2022-10-01T19:03:19.666Z,10.20
2022-10-01T19:06:13.162Z,10.27
2022-10-01T19:09:05.426Z,10.19
2022-10-01T19:11:40.978Z,10.20
2022-10-01T19:14:28.106Z,10.10
2022-10-01T19:17:07.038Z,10.05
2022-10-01T19:19:45.813Z,9.97
2022-10-01T19:22:22.194Z,9.95
2022-10-01T19:25:00.783Z,9.94
2022-10-01T19:27:41.595Z,9.96
2022-10-01T19:30:15.266Z,9.93
2022-10-01T19:32:47.243Z,9.92
2022-10-01T19:35:20.009Z,9.97
2022-10-01T19:37:52.464Z,10.22
2022-10-01T19:40:31.893Z,10.46
2022-10-01T19:43:08.983Z,10.68
2022-10-01T19:45:47.539Z,10.77
2022-10-01T19:48:22.293Z,10.74
2022-10-01T19:50:56.500Z,10.49
2022-10-01T19:53:28.658Z,10.60
2022-10-01T19:55:59.601Z,10.54
2022-10-01T19:58:27.495Z,10.54
2022-10-01T20:00:58.257Z,10.44
2022-10-01T20:03:37.259Z,10.35
2022-10-01T20:06:08.645Z,10.29
2022-10-01T20:08:42.733Z,10.27
2022-10-01T20:11:19.720Z,10.18
2022-10-01T20:14:03.628Z,10.07
2022-10-01T20:16:36.205Z,9.92
2022-10-01T20:19:14.437Z,10.00
2022-10-01T20:21:47.341Z,9.97
2022-10-01T20:24:29.515Z,9.98
2022-10-01T20:27:11.681Z,9.98
2022-10-01T20:29:47.782Z,10.16
2022-10-01T20:32:22.284Z,10.23
2022-10-01T20:35:02.750Z,10.30
2022-10-01T20:37:46.406Z,10.36
2022-10-01T20:40:18.768Z,10.42
2022-10-01T20:42:49.744Z,10.43
2022-10-01T20:45:22.531Z,10.45
2022-10-01T20:47:55.118Z,10.45
2022-10-01T20:50:29.440Z,10.42
2022-10-01T20:53:05.693Z,10.30
2022-10-01T20:55:40.524Z,10.18
2022-10-01T20:58:14.937Z,10.06
2022-10-01T21:00:45.693Z,9.99
2022-10-01T21:03:23.982Z,9.96
2022-10-01T21:05:55.062Z,9.98
2022-10-01T21:08:37.773Z,9.98
2022-10-01T21:11:08.735Z,9.98
2022-10-01T21:13:43.596Z,9.88
2022-10-01T21:16:37.937Z,9.96
2022-10-01T21:19:23.169Z,9.98
2022-10-01T21:21:57.970Z,9.98
2022-10-01T21:24:38.751Z,9.98
2022-10-01T21:27:20.177Z,9.94
2022-10-01T21:30:03.059Z,9.90
2022-10-01T21:32:42.387Z,9.87
2022-10-01T21:35:20.944Z,9.94
2022-10-01T21:37:58.263Z,10.05
2022-10-01T21:40:32.763Z,10.14
2022-10-01T21:43:08.170Z,10.15
2022-10-01T21:45:43.603Z,10.17
2022-10-01T21:48:20.596Z,10.21
2022-10-01T21:50:54.372Z,10.23
2022-10-01T21:53:36.494Z,10.35
2022-10-01T21:56:20.487Z,10.37
2022-10-01T21:59:05.229Z,10.42
2022-10-01T22:01:51.448Z,10.53
2022-10-01T22:04:24.532Z,10.58
2022-10-01T22:07:00.042Z,10.18
2022-10-01T22:09:34.344Z,10.53
2022-10-01T22:12:03.324Z,10.44
2022-10-01T22:14:31.328Z,10.49
2022-10-01T22:17:04.488Z,10.53
2022-10-01T22:19:33.904Z,10.58
2022-10-01T22:22:08.550Z,10.40
2022-10-01T22:24:40.321Z,10.66
2022-10-01T22:27:12.790Z,10.70
2022-10-01T22:29:43.505Z,10.68
2022-10-01T22:32:14.788Z,10.74
2022-10-01T22:34:48.719Z,10.65
2022-10-01T22:37:21.686Z,10.67
2022-10-01T22:39:55.579Z,10.71
2022-10-01T22:42:30.189Z,10.76
2022-10-01T22:45:03.760Z,10.77
2022-10-01T22:47:45.741Z,10.80
2022-10-01T22:50:41.818Z,10.71
2022-10-01T22:53:24.309Z,10.87
2022-10-01T22:55:55.152Z,10.91
2022-10-01T22:58:34.852Z,10.98
2022-10-01T23:01:11.982Z,10.98
2022-10-01T23:03:56.991Z,10.93
2022-10-01T23:06:34.275Z,10.93
2022-10-01T23:09:08.924Z,10.83
2022-10-01T23:11:47.328Z,10.80
2022-10-01T23:14:24.319Z,10.78
2022-10-01T23:16:56.781Z,10.71
2022-10-01T23:19:37.738Z,10.82
2022-10-01T23:22:12.670Z,10.82
2022-10-01T23:24:55.177Z,10.84
2022-10-01T23:27:36.641Z,10.85
2022-10-01T23:30:09.755Z,10.84
2022-10-01T23:33:13.805Z,10.91
2022-10-01T23:35:49.103Z,10.88
2022-10-01T23:38:30.372Z,10.91
2022-10-01T23:41:04.657Z,10.86
2022-10-01T23:43:38.400Z,10.81
2022-10-01T23:46:12.661Z,10.79
2022-10-01T23:48:45.016Z,10.80
2022-10-01T23:51:19.879Z,10.84
2022-10-01T23:53:55.911Z,10.83
2022-10-01T23:56:45.104Z,10.85
2022-10-01T23:59:18.766Z,10.82
